Time;durP1;ratioP1;P1;durP2;ratioP2;P2;SDS_P1;SDS_P2;PMS_P1;PMS_P2;Temp;Humidity;BMP_temperature;BMP_pressure;BME280_temperature;BME280_humidity;BME280_pressure;Samples;Min_cycle;Max_cycle;Signal;HPM_P1;HPM_P2
2022/08/16 00:02:29;;;;;;;17.80;16.30;;;;;;;;;;5031651;28;20056;-64
2022/08/16 00:04:55;;;;;;;18.77;17.17;;;;;;;;;;5031439;28;20053;-64
2022/08/16 00:07:25;;;;;;;18.38;16.88;;;;;;;;;;5030412;28;20516;-65
2022/08/16 00:09:55;;;;;;;17.45;15.80;;;;;;;;;;5031546;28;20054;-64
2022/08/16 00:12:22;;;;;;;17.92;16.23;;;;;;;;;;5031296;28;20061;-65
2022/08/16 00:14:49;;;;;;;19.13;17.30;;;;;;;;;;5031291;28;20099;-65
2022/08/16 00:17:15;;;;;;;18.75;17.05;;;;;;;;;;5031576;28;20049;-65
2022/08/16 00:19:45;;;;;;;18.20;16.65;;;;;;;;;;5031249;28;20172;-65
2022/08/16 00:22:18;;;;;;;18.13;16.38;;;;;;;;;;5031511;28;20041;-65
2022/08/16 00:24:46;;;;;;;19.05;17.25;;;;;;;;;;5031499;28;20128;-64
2022/08/16 00:27:16;;;;;;;17.95;16.33;;;;;;;;;;5031505;28;20049;-65
2022/08/16 00:29:43;;;;;;;17.50;16.05;;;;;;;;;;5031369;28;20069;-65
2022/08/16 00:32:11;;;;;;;17.20;15.73;;;;;;;;;;5031222;28;20050;-65
2022/08/16 00:34:43;;;;;;;17.42;15.88;;;;;;;;;;5031124;28;20053;-64
2022/08/16 00:37:19;;;;;;;18.75;16.92;;;;;;;;;;5031482;28;20049;-65
2022/08/16 00:39:50;;;;;;;19.73;17.98;;;;;;;;;;5031390;28;20053;-65
2022/08/16 00:42:25;;;;;;;18.98;17.38;;;;;;;;;;5031340;28;20103;-65
2022/08/16 00:45:06;;;;;;;17.60;15.98;;;;;;;;;;5033553;28;20050;-65
2022/08/16 00:47:38;;;;;;;18.83;17.23;;;;;;;;;;5035037;28;20132;-65
2022/08/16 00:50:04;;;;;;;17.23;15.63;;;;;;;;;;5034834;28;20046;-65
2022/08/16 00:52:37;;;;;;;19.42;17.63;;;;;;;;;;5034672;28;20045;-65
2022/08/16 00:55:16;;;;;;;20.10;18.30;;;;;;;;;;5034790;28;20056;-65
2022/08/16 00:57:43;;;;;;;20.33;18.30;;;;;;;;;;5034740;28;20052;-64
2022/08/16 01:00:27;;;;;;;19.58;17.88;;;;;;;;;;5034494;28;20390;-65
2022/08/16 01:02:55;;;;;;;20.13;18.33;;;;;;;;;;5034643;28;20045;-64
2022/08/16 01:05:24;;;;;;;20.35;18.33;;;;;;;;;;5034355;28;20129;-64
2022/08/16 01:07:51;;;;;;;19.35;17.60;;;;;;;;;;5034556;28;20053;-65
2022/08/16 01:10:23;;;;;;;19.38;17.70;;;;;;;;;;5034283;28;20052;-65
2022/08/16 01:13:01;;;;;;;18.92;17.23;;;;;;;;;;5032979;28;20099;-65
2022/08/16 01:15:30;;;;;;;18.67;16.88;;;;;;;;;;5033169;28;20107;-65
2022/08/16 01:17:58;;;;;;;18.20;16.58;;;;;;;;;;5033112;28;20416;-65
2022/08/16 01:20:26;;;;;;;18.42;16.67;;;;;;;;;;5033975;28;20494;-65
2022/08/16 01:23:02;;;;;;;16.58;15.13;;;;;;;;;;5034027;28;20132;-65
2022/08/16 01:25:35;;;;;;;18.45;16.85;;;;;;;;;;5034175;28;20045;-65
2022/08/16 01:28:05;;;;;;;21.40;18.98;;;;;;;;;;5033837;28;20494;-65
2022/08/16 01:30:38;;;;;;;23.42;21.05;;;;;;;;;;5034036;28;20049;-65
2022/08/16 01:33:16;;;;;;;23.92;21.67;;;;;;;;;;5034170;28;20089;-65
2022/08/16 01:35:47;;;;;;;23.55;21.33;;;;;;;;;;5033802;28;20556;-65
2022/08/16 01:38:21;;;;;;;21.10;19.17;;;;;;;;;;5033766;28;20077;-65
2022/08/16 01:40:52;;;;;;;19.15;17.40;;;;;;;;;;5033981;28;20046;-65
2022/08/16 01:43:20;;;;;;;18.90;17.33;;;;;;;;;;5033575;28;20041;-65
2022/08/16 01:45:52;;;;;;;19.77;17.88;;;;;;;;;;5032445;28;20140;-65
2022/08/16 01:48:24;;;;;;;19.27;17.42;;;;;;;;;;5033759;28;20128;-64
2022/08/16 01:50:53;;;;;;;20.55;18.75;;;;;;;;;;5033490;28;20061;-64
2022/08/16 01:53:39;;;;;;;19.95;18.08;;;;;;;;;;5033478;28;20405;-64
2022/08/16 01:56:07;;;;;;;;;;;;;;;;;;5033276;28;20053;-64
2022/08/16 01:58:33;;;;;;;19.38;17.55;;;;;;;;;;5033449;28;19971;-65
2022/08/16 02:01:02;;;;;;;19.15;17.55;;;;;;;;;;5033005;28;20046;-64
2022/08/16 02:03:29;;;;;;;19.00;17.40;;;;;;;;;;5033552;28;20053;-65
2022/08/16 02:05:56;;;;;;;17.85;16.17;;;;;;;;;;5033126;28;20103;-65
2022/08/16 02:08:22;;;;;;;18.63;17.10;;;;;;;;;;5032401;28;20048;-64
2022/08/16 02:11:01;;;;;;;20.33;18.60;;;;;;;;;;5033368;28;20049;-64
2022/08/16 02:13:27;;;;;;;18.27;16.67;;;;;;;;;;5032877;28;20429;-65
2022/08/16 02:15:58;;;;;;;16.95;15.45;;;;;;;;;;5033008;28;20505;-64
2022/08/16 02:18:24;;;;;;;19.03;17.20;;;;;;;;;;5033207;28;20112;-65
2022/08/16 02:20:52;;;;;;;18.90;17.15;;;;;;;;;;5031929;28;20638;-65
2022/08/16 02:23:19;;;;;;;18.95;17.27;;;;;;;;;;5032840;28;20489;-65
2022/08/16 02:25:46;;;;;;;20.30;18.37;;;;;;;;;;5033023;28;20448;-65
2022/08/16 02:28:20;;;;;;;19.38;17.67;;;;;;;;;;5032968;28;20049;-64
2022/08/16 02:30:50;;;;;;;20.90;19.00;;;;;;;;;;5032905;28;20041;-64
2022/08/16 02:33:17;;;;;;;19.55;18.02;;;;;;;;;;5032963;28;20092;-64
2022/08/16 02:35:44;;;;;;;19.92;18.02;;;;;;;;;;5032880;28;20042;-64
2022/08/16 02:38:23;;;;;;;21.20;18.80;;;;;;;;;;5032573;28;20501;-64
2022/08/16 02:40:50;;;;;;;20.52;18.63;;;;;;;;;;5032386;28;20516;-64
2022/08/16 02:43:19;;;;;;;19.83;18.08;;;;;;;;;;5032693;28;20049;-65
2022/08/16 02:45:52;;;;;;;20.75;18.83;;;;;;;;;;5032382;28;20128;-64
2022/08/16 02:48:18;;;;;;;19.88;18.17;;;;;;;;;;5032703;28;20081;-64
2022/08/16 02:50:56;;;;;;;;;;;;;;;;;;5032752;28;20081;-64
2022/08/16 02:53:33;;;;;;;21.50;19.60;;;;;;;;;;5032559;28;19925;-64
2022/08/16 02:55:59;;;;;;;;;;;;;;;;;;5032829;28;20446;-64
2022/08/16 02:58:26;;;;;;;24.65;22.33;;;;;;;;;;5031040;28;19925;-64
2022/08/16 03:00:53;;;;;;;24.65;22.10;;;;;;;;;;5032340;28;20053;-64
2022/08/16 03:03:21;;;;;;;21.63;19.65;;;;;;;;;;5032141;28;20533;-64
2022/08/16 03:05:50;;;;;;;23.13;21.02;;;;;;;;;;5032268;28;20045;-64
2022/08/16 03:08:18;;;;;;;25.05;22.60;;;;;;;;;;5032260;28;20132;-65
2022/08/16 03:11:05;;;;;;;23.85;21.52;;;;;;;;;;5032160;28;20140;-65
2022/08/16 03:13:42;;;;;;;22.55;20.48;;;;;;;;;;5031976;28;20046;-64
2022/08/16 03:16:13;;;;;;;23.33;20.92;;;;;;;;;;5032095;28;20191;-64
2022/08/16 03:18:59;;;;;;;23.80;21.50;;;;;;;;;;5032146;28;20049;-64
2022/08/16 03:21:27;;;;;;;;;;;;;;;;;;5032178;28;20485;-64
2022/08/16 03:23:55;;;;;;;24.80;22.58;;;;;;;;;;5031885;28;19987;-64
2022/08/16 03:26:21;;;;;;;;;;;;;;;;;;5032134;28;20505;-64
2022/08/16 03:28:48;;;;;;;26.60;24.00;;;;;;;;;;5031782;28;20367;-64
2022/08/16 03:31:14;;;;;;;27.15;24.48;;;;;;;;;;5031966;28;20127;-64
2022/08/16 03:33:42;;;;;;;26.38;23.85;;;;;;;;;;5031833;28;20489;-65
2022/08/16 03:36:10;;;;;;;26.52;23.92;;;;;;;;;;5032006;28;20448;-64
2022/08/16 03:38:56;;;;;;;27.35;24.80;;;;;;;;;;5031740;28;20083;-64
2022/08/16 03:41:25;;;;;;;26.42;23.98;;;;;;;;;;5031805;28;20045;-64
2022/08/16 03:44:00;;;;;;;26.48;23.83;;;;;;;;;;5031756;28;20107;-64
2022/08/16 03:46:28;;;;;;;25.25;22.98;;;;;;;;;;5031544;28;20049;-64
2022/08/16 03:49:16;;;;;;;24.90;22.80;;;;;;;;;;5031492;28;20512;-64
2022/08/16 03:51:42;;;;;;;24.85;22.30;;;;;;;;;;5031567;28;20505;-64
2022/08/16 03:54:09;;;;;;;23.63;21.60;;;;;;;;;;5030237;28;20493;-64
2022/08/16 03:56:38;;;;;;;26.50;23.90;;;;;;;;;;5031481;28;20060;-64
2022/08/16 03:59:22;;;;;;;28.38;25.50;;;;;;;;;;5031380;28;20497;-65
2022/08/16 04:01:49;;;;;;;29.17;26.20;;;;;;;;;;5031573;28;20053;-64
2022/08/16 04:04:19;;;;;;;30.05;27.13;;;;;;;;;;5031520;28;20045;-64
2022/08/16 04:06:58;;;;;;;28.17;25.45;;;;;;;;;;5031754;28;20057;-65
2022/08/16 04:09:24;;;;;;;27.85;25.35;;;;;;;;;;5031346;28;20045;-64
2022/08/16 04:11:51;;;;;;;29.80;26.75;;;;;;;;;;5031232;28;20058;-64
2022/08/16 04:14:18;;;;;;;26.70;24.30;;;;;;;;;;5031218;28;20053;-64
2022/08/16 04:16:59;;;;;;;30.33;27.40;;;;;;;;;;5031609;28;20417;-64
2022/08/16 04:19:27;;;;;;;30.73;27.90;;;;;;;;;;5032849;28;20045;-64
2022/08/16 04:21:57;;;;;;;31.40;28.33;;;;;;;;;;5035446;28;20049;-64
2022/08/16 04:24:26;;;;;;;30.73;27.58;;;;;;;;;;5035074;28;20056;-64
2022/08/16 04:26:54;;;;;;;30.42;27.42;;;;;;;;;;5035279;28;20111;-64
2022/08/16 04:29:21;;;;;;;30.05;27.08;;;;;;;;;;5035016;28;20080;-64
2022/08/16 04:31:51;;;;;;;31.85;28.48;;;;;;;;;;5035222;28;20045;-65
2022/08/16 04:34:32;;;;;;;30.80;27.70;;;;;;;;;;5035067;28;20168;-65
2022/08/16 04:36:59;;;;;;;31.13;28.08;;;;;;;;;;5035116;28;20081;-64
2022/08/16 04:39:28;;;;;;;30.60;27.70;;;;;;;;;;5035105;28;20437;-64
2022/08/16 04:42:11;;;;;;;29.20;26.50;;;;;;;;;;5033860;28;20041;-64
2022/08/16 04:44:38;;;;;;;28.45;25.85;;;;;;;;;;5034929;28;20084;-64
2022/08/16 04:47:21;;;;;;;28.23;25.48;;;;;;;;;;5034531;28;20041;-64
2022/08/16 04:49:50;;;;;;;29.45;26.85;;;;;;;;;;5033385;28;20092;-64
2022/08/16 04:52:18;;;;;;;31.00;28.00;;;;;;;;;;5033558;28;20073;-64
2022/08/16 04:55:08;;;;;;;29.02;26.10;;;;;;;;;;5034557;28;20049;-64
2022/08/16 04:57:37;;;;;;;29.77;26.67;;;;;;;;;;5034525;28;20045;-64
2022/08/16 05:00:06;;;;;;;30.83;27.93;;;;;;;;;;5034366;28;20053;-64
2022/08/16 05:02:53;;;;;;;30.02;26.92;;;;;;;;;;5034356;28;20056;-64
2022/08/16 05:05:22;;;;;;;29.52;26.70;;;;;;;;;;5034288;28;20125;-64
2022/08/16 05:07:48;;;;;;;29.52;26.77;;;;;;;;;;5034271;28;20484;-64
2022/08/16 05:10:26;;;;;;;28.42;25.38;;;;;;;;;;5034350;28;20045;-64
2022/08/16 05:12:53;;;;;;;30.40;27.23;;;;;;;;;;5034108;28;20061;-64
2022/08/16 05:15:19;;;;;;;29.05;26.40;;;;;;;;;;5034380;28;20049;-64
2022/08/16 05:17:47;;;;;;;29.30;26.50;;;;;;;;;;5032978;28;20205;-64
2022/08/16 05:20:24;;;;;;;29.35;26.65;;;;;;;;;;5022232;28;20045;-64
2022/08/16 05:23:10;;;;;;;29.35;26.65;;;;;;;;;;5033869;28;20426;-64
2022/08/16 05:25:39;;;;;;;29.40;26.60;;;;;;;;;;5034005;28;20602;-64
2022/08/16 05:28:13;;;;;;;29.25;26.38;;;;;;;;;;5034260;28;20049;-64
2022/08/16 05:30:39;;;;;;;28.63;25.93;;;;;;;;;;5032601;28;20088;-64
2022/08/16 05:33:08;;;;;;;27.90;25.40;;;;;;;;;;5033925;28;20563;-64
2022/08/16 05:35:43;;;;;;;26.05;23.58;;;;;;;;;;5034131;28;20049;-64
2022/08/16 05:38:26;;;;;;;27.80;25.38;;;;;;;;;;5033710;28;20501;-64
2022/08/16 05:41:04;;;;;;;25.98;23.65;;;;;;;;;;5033758;28;20501;-64
2022/08/16 05:43:32;;;;;;;28.35;25.77;;;;;;;;;;5033905;28;20052;-64
2022/08/16 05:46:16;;;;;;;28.75;25.95;;;;;;;;;;5033965;28;20092;-64
2022/08/16 05:48:57;;;;;;;29.65;26.58;;;;;;;;;;5033907;28;20067;-64
2022/08/16 05:51:31;;;;;;;29.95;26.77;;;;;;;;;;5033554;28;20068;-64
2022/08/16 05:54:05;;;;;;;30.33;27.40;;;;;;;;;;5033731;28;20080;-64
2022/08/16 05:56:31;;;;;;;31.73;28.65;;;;;;;;;;5033412;28;20080;-64
2022/08/16 05:59:03;;;;;;;31.27;28.38;;;;;;;;;;5033315;28;20057;-64
2022/08/16 06:01:32;;;;;;;29.13;26.05;;;;;;;;;;5033527;28;20144;-64
2022/08/16 06:04:04;;;;;;;28.83;25.75;;;;;;;;;;5032344;28;20058;-65
2022/08/16 06:06:39;;;;;;;28.42;25.67;;;;;;;;;;5031282;28;20128;-64
2022/08/16 06:09:09;;;;;;;29.75;27.02;;;;;;;;;;5032870;28;20060;-64
2022/08/16 06:11:36;;;;;;;27.33;24.73;;;;;;;;;;5033309;28;20041;-64
2022/08/16 06:14:03;;;;;;;29.85;27.00;;;;;;;;;;5033377;28;20087;-64
2022/08/16 06:16:30;;;;;;;29.20;26.35;;;;;;;;;;5032980;28;20129;-65
2022/08/16 06:18:57;;;;;;;;;;;;;;;;;;5033596;28;20049;-64
2022/08/16 06:21:24;;;;;;;28.67;25.88;;;;;;;;;;5032854;28;20351;-65
2022/08/16 06:23:51;;;;;;;29.70;26.70;;;;;;;;;;5032885;28;20091;-64
2022/08/16 06:26:20;;;;;;;29.77;26.92;;;;;;;;;;5032755;28;20081;-64
2022/08/16 06:28:47;;;;;;;31.25;28.15;;;;;;;;;;5032418;28;20497;-65
2022/08/16 06:31:15;;;;;;;30.25;27.25;;;;;;;;;;5019274;28;20437;-65
2022/08/16 06:33:42;;;;;;;30.30;27.20;;;;;;;;;;5032604;28;20096;-65
2022/08/16 06:36:11;;;;;;;28.40;25.75;;;;;;;;;;5032796;28;20052;-66
2022/08/16 06:38:39;;;;;;;28.88;26.27;;;;;;;;;;5032536;28;20057;-64
2022/08/16 06:41:21;;;;;;;28.25;25.55;;;;;;;;;;5032021;28;20052;-64
2022/08/16 06:43:49;;;;;;;29.50;26.70;;;;;;;;;;5032047;28;20050;-64
2022/08/16 06:46:27;;;;;;;29.45;26.50;;;;;;;;;;5032784;28;20121;-66
2022/08/16 06:48:57;;;;;;;29.45;26.73;;;;;;;;;;5032492;28;20063;-65
2022/08/16 06:51:24;;;;;;;29.10;26.23;;;;;;;;;;5032015;28;20501;-65
2022/08/16 06:54:10;;;;;;;28.33;25.83;;;;;;;;;;5031106;28;20079;-65
2022/08/16 06:56:39;;;;;;;28.95;26.15;;;;;;;;;;5032063;28;20139;-65
2022/08/16 06:59:06;;;;;;;27.67;25.15;;;;;;;;;;5032119;28;20064;-65
2022/08/16 07:01:35;;;;;;;29.40;26.63;;;;;;;;;;5030648;28;20049;-65
2022/08/16 07:04:16;;;;;;;30.55;27.48;;;;;;;;;;5028548;28;20124;-64
2022/08/16 07:06:58;;;;;;;30.85;27.75;;;;;;;;;;5030232;28;20057;-64
2022/08/16 07:09:25;;;;;;;29.17;26.40;;;;;;;;;;5031312;28;20083;-65
2022/08/16 07:11:55;;;;;;;30.38;27.20;;;;;;;;;;5031100;28;20500;-65
2022/08/16 07:14:29;;;;;;;31.27;28.38;;;;;;;;;;5031906;28;20045;-64
2022/08/16 07:16:56;;;;;;;30.88;27.63;;;;;;;;;;5031253;28;20536;-64
2022/08/16 07:19:24;;;;;;;30.85;27.85;;;;;;;;;;5031920;28;20052;-65
2022/08/16 07:22:10;;;;;;;33.33;29.83;;;;;;;;;;5031763;28;20049;-68
2022/08/16 07:24:56;;;;;;;33.05;29.85;;;;;;;;;;5031767;28;20140;-65
2022/08/16 07:27:23;;;;;;;34.38;30.13;;;;;;;;;;5031437;28;20448;-65
2022/08/16 07:29:50;;;;;;;34.88;31.35;;;;;;;;;;5031478;28;20132;-65
2022/08/16 07:32:21;;;;;;;35.22;31.38;;;;;;;;;;5030819;28;20061;-65
2022/08/16 07:34:55;;;;;;;35.55;31.80;;;;;;;;;;5031542;28;20049;-64
2022/08/16 07:37:21;;;;;;;35.45;31.75;;;;;;;;;;5031250;28;20497;-65
2022/08/16 07:39:49;;;;;;;34.80;31.30;;;;;;;;;;5031280;28;20100;-65
2022/08/16 07:42:16;;;;;;;36.00;32.13;;;;;;;;;;5031098;28;20639;-65
2022/08/16 07:44:54;;;;;;;33.10;29.83;;;;;;;;;;5031377;28;20053;-66
2022/08/16 07:47:22;;;;;;;35.38;31.67;;;;;;;;;;5029061;28;20053;-65
2022/08/16 07:49:57;;;;;;;34.92;31.20;;;;;;;;;;5030734;28;20057;-65
2022/08/16 07:52:24;;;;;;;34.47;31.08;;;;;;;;;;5029122;28;20064;-65
2022/08/16 07:54:56;;;;;;;35.33;31.63;;;;;;;;;;5033176;28;20080;-65
2022/08/16 07:57:22;;;;;;;34.17;30.92;;;;;;;;;;5033967;28;20056;-64
2022/08/16 07:59:49;;;;;;;34.80;31.33;;;;;;;;;;5035035;28;20057;-64
2022/08/16 08:02:17;;;;;;;33.15;29.85;;;;;;;;;;5034474;28;20087;-66
2022/08/16 08:04:46;;;;;;;32.60;29.58;;;;;;;;;;5035238;28;20120;-65
2022/08/16 08:07:13;;;;;;;33.47;30.08;;;;;;;;;;5034921;28;20045;-65
2022/08/16 08:09:41;;;;;;;31.50;28.73;;;;;;;;;;5035055;28;20049;-64
2022/08/16 08:12:09;;;;;;;;;;;;;;;;;;5034827;28;20159;-64
2022/08/16 08:14:35;;;;;;;30.83;27.83;;;;;;;;;;5034792;28;20439;-65
2022/08/16 08:17:04;;;;;;;29.58;26.70;;;;;;;;;;5026973;28;20409;-64
2022/08/16 08:19:34;;;;;;;29.95;27.35;;;;;;;;;;5028551;28;20049;-64
2022/08/16 08:22:02;;;;;;;27.27;24.65;;;;;;;;;;5034385;28;20107;-64
2022/08/16 08:24:36;;;;;;;27.73;25.02;;;;;;;;;;5033978;28;20046;-64
2022/08/16 08:27:03;;;;;;;27.20;24.80;;;;;;;;;;5034408;28;20077;-64
2022/08/16 08:29:30;;;;;;;26.83;24.33;;;;;;;;;;5035257;28;20091;-64
2022/08/16 08:32:06;;;;;;;26.50;24.23;;;;;;;;;;5035287;28;20055;-64
2022/08/16 08:34:54;;;;;;;26.95;24.42;;;;;;;;;;5034625;28;20497;-64
2022/08/16 08:37:26;;;;;;;26.55;24.25;;;;;;;;;;5035226;28;20077;-64
2022/08/16 08:40:13;;;;;;;24.48;22.42;;;;;;;;;;5034975;28;20053;-64
2022/08/16 08:42:44;;;;;;;26.05;23.63;;;;;;;;;;5034753;28;20088;-64
2022/08/16 08:45:14;;;;;;;25.55;23.08;;;;;;;;;;5034686;28;20046;-65
2022/08/16 08:48:01;;;;;;;27.13;24.65;;;;;;;;;;5034969;28;20045;-64
2022/08/16 08:50:31;;;;;;;26.13;23.73;;;;;;;;;;5034621;28;20512;-64
2022/08/16 08:52:57;;;;;;;24.83;22.52;;;;;;;;;;5034927;28;20053;-64
2022/08/16 08:55:26;;;;;;;25.67;23.27;;;;;;;;;;5034416;28;20523;-64
2022/08/16 08:57:56;;;;;;;24.70;22.25;;;;;;;;;;5034883;28;20108;-64
2022/08/16 09:00:23;;;;;;;;;;;;;;;;;;5033845;28;20049;-64
2022/08/16 09:02:52;;;;;;;22.13;20.23;;;;;;;;;;5033664;28;19956;-64
2022/08/16 09:05:20;;;;;;;24.60;22.38;;;;;;;;;;5032879;28;20099;-64
2022/08/16 09:07:47;;;;;;;25.83;23.48;;;;;;;;;;5033363;28;20045;-65
2022/08/16 09:10:27;;;;;;;23.70;21.60;;;;;;;;;;5034396;28;20559;-65
2022/08/16 09:12:55;;;;;;;25.88;23.58;;;;;;;;;;5034185;28;20075;-64
2022/08/16 09:15:22;;;;;;;24.63;22.42;;;;;;;;;;5034582;28;20374;-64
2022/08/16 09:17:54;;;;;;;25.45;23.08;;;;;;;;;;5034080;28;20049;-64
2022/08/16 09:20:25;;;;;;;24.75;22.42;;;;;;;;;;5032969;28;20535;-69
2022/08/16 09:22:51;;;;;;;23.90;21.92;;;;;;;;;;5033560;28;20551;-68
2022/08/16 09:25:19;;;;;;;25.77;23.23;;;;;;;;;;5033873;28;20481;-68
2022/08/16 09:27:58;;;;;;;25.08;22.77;;;;;;;;;;5033866;28;20136;-68
2022/08/16 09:30:34;;;;;;;25.27;23.00;;;;;;;;;;5033757;28;20044;-70
2022/08/16 09:33:09;;;;;;;25.40;22.95;;;;;;;;;;5033623;28;20103;-68
2022/08/16 09:35:36;;;;;;;26.25;23.95;;;;;;;;;;5033668;28;20066;-68
2022/08/16 09:38:04;;;;;;;24.33;22.23;;;;;;;;;;5033610;28;20100;-69
2022/08/16 09:40:34;;;;;;;25.58;23.35;;;;;;;;;;5033177;28;20486;-68
2022/08/16 09:43:10;;;;;;;24.70;22.50;;;;;;;;;;5031966;28;20746;-69
2022/08/16 09:45:56;;;;;;;24.65;22.42;;;;;;;;;;5033157;28;20156;-70
2022/08/16 09:48:23;;;;;;;24.23;21.93;;;;;;;;;;5033117;28;20084;-69
2022/08/16 09:51:10;;;;;;;24.13;22.05;;;;;;;;;;5031225;28;20084;-70
2022/08/16 09:53:37;;;;;;;22.65;20.65;;;;;;;;;;5033114;28;20087;-68
2022/08/16 09:56:13;;;;;;;24.65;22.45;;;;;;;;;;5032727;28;20046;-70
2022/08/16 09:58:43;;;;;;;22.08;20.27;;;;;;;;;;5032424;28;20586;-68
2022/08/16 10:01:30;;;;;;;22.90;21.00;;;;;;;;;;5032298;28;20501;-68
2022/08/16 10:03:58;;;;;;;25.70;23.15;;;;;;;;;;5032771;28;20045;-68
2022/08/16 10:06:28;;;;;;;25.00;22.80;;;;;;;;;;5032718;28;20053;-68
2022/08/16 10:08:59;;;;;;;25.23;22.80;;;;;;;;;;5031317;28;20049;-70
2022/08/16 10:14:16;;;;;;;25.73;23.15;;;;;;;;;;5032360;28;20100;-68
2022/08/16 10:16:45;;;;;;;26.00;23.50;;;;;;;;;;5031848;28;20567;-68
2022/08/16 10:19:14;;;;;;;24.58;22.55;;;;;;;;;;5032791;28;20049;-68
2022/08/16 10:21:45;;;;;;;25.63;23.40;;;;;;;;;;5032401;28;20530;-68
2022/08/16 10:24:22;;;;;;;24.63;22.58;;;;;;;;;;5032354;28;20132;-68
2022/08/16 10:26:56;;;;;;;24.60;22.38;;;;;;;;;;5032233;28;20049;-68
2022/08/16 10:29:42;;;;;;;24.77;22.58;;;;;;;;;;5032141;28;20056;-68
2022/08/16 10:32:29;;;;;;;24.50;22.30;;;;;;;;;;5032486;28;20054;-68
2022/08/16 10:34:57;;;;;;;22.67;20.77;;;;;;;;;;5032142;28;20107;-68
2022/08/16 10:37:24;;;;;;;24.23;22.15;;;;;;;;;;5032083;28;20502;-68
2022/08/16 10:40:06;;;;;;;23.08;20.98;;;;;;;;;;5032326;28;20416;-68
2022/08/16 10:42:53;;;;;;;24.42;22.35;;;;;;;;;;5032174;28;20053;-68
2022/08/16 10:45:19;;;;;;;23.85;21.85;;;;;;;;;;5032276;28;20505;-68
2022/08/16 10:47:46;;;;;;;22.17;20.27;;;;;;;;;;5031948;28;20088;-68
2022/08/16 10:50:24;;;;;;;23.25;21.05;;;;;;;;;;5030163;28;20049;-68
2022/08/16 10:52:54;;;;;;;24.02;21.95;;;;;;;;;;5031795;28;20049;-69
2022/08/16 10:55:25;;;;;;;24.15;21.95;;;;;;;;;;5029292;28;20448;-68
2022/08/16 10:58:12;;;;;;;23.27;21.30;;;;;;;;;;5031897;28;20045;-68
2022/08/16 11:00:39;;;;;;;23.38;21.10;;;;;;;;;;5031521;28;20108;-67
2022/08/16 11:03:06;;;;;;;25.45;23.08;;;;;;;;;;5031660;28;20055;-67
2022/08/16 11:05:53;;;;;;;23.25;21.05;;;;;;;;;;5030666;28;20041;-68
2022/08/16 11:08:31;;;;;;;23.30;21.20;;;;;;;;;;5031940;28;20054;-68
2022/08/16 11:11:03;;;;;;;24.08;22.05;;;;;;;;;;5031787;28;20488;-68
2022/08/16 11:13:36;;;;;;;22.30;20.42;;;;;;;;;;5031481;28;20465;-68
2022/08/16 11:16:23;;;;;;;23.13;20.85;;;;;;;;;;5031299;28;20056;-68
2022/08/16 11:18:52;;;;;;;21.38;19.25;;;;;;;;;;5031452;28;20061;-68
2022/08/16 11:21:35;;;;;;;20.02;17.70;;;;;;;;;;5031310;28;20049;-68
2022/08/16 11:24:02;;;;;;;18.45;16.95;;;;;;;;;;5031526;28;20049;-68
2022/08/16 11:26:51;;;;;;;19.17;17.58;;;;;;;;;;5031465;28;20412;-68
2022/08/16 11:29:38;;;;;;;19.75;18.15;;;;;;;;;;5031083;28;20058;-68
2022/08/16 11:32:05;;;;;;;19.95;18.13;;;;;;;;;;5031570;28;20099;-68
2022/08/16 11:34:32;;;;;;;20.77;19.17;;;;;;;;;;5031228;28;20132;-65
2022/08/16 11:37:19;;;;;;;17.10;15.57;;;;;;;;;;5031380;28;20049;-75
2022/08/16 11:40:06;;;;;;;17.85;16.35;;;;;;;;;;5031372;28;20053;-75
2022/08/16 11:42:34;;;;;;;17.92;16.33;;;;;;;;;;5031096;28;20085;-71
2022/08/16 11:45:06;;;;;;;16.45;15.05;;;;;;;;;;5024425;28;20049;-77
2022/08/16 11:47:32;;;;;;;16.88;15.57;;;;;;;;;;5031030;28;20494;-76
2022/08/16 11:49:59;;;;;;;18.58;16.92;;;;;;;;;;5029222;28;20053;-76
2022/08/16 11:52:26;;;;;;;17.20;15.82;;;;;;;;;;5031048;28;20104;-76
2022/08/16 11:54:53;;;;;;;17.85;16.35;;;;;;;;;;5031125;28;20082;-72
2022/08/16 11:57:25;;;;;;;14.55;13.35;;;;;;;;;;5031161;28;20468;-73
2022/08/16 11:59:53;;;;;;;16.20;14.88;;;;;;;;;;5026396;28;20057;-73
2022/08/16 12:02:20;;;;;;;16.33;14.98;;;;;;;;;;5030690;28;20307;-72
2022/08/16 12:04:57;;;;;;;16.45;15.05;;;;;;;;;;5030197;28;20132;-73
2022/08/16 12:07:26;;;;;;;17.48;15.88;;;;;;;;;;5030546;28;20052;-77
2022/08/16 12:09:53;;;;;;;;;;;;;;;;;;5030815;28;20057;-74
2022/08/16 12:12:20;;;;;;;17.17;15.68;;;;;;;;;;5030166;28;20467;-73
2022/08/16 12:14:49;;;;;;;16.63;15.13;;;;;;;;;;5031061;28;20048;-73
2022/08/16 12:17:25;;;;;;;17.17;15.57;;;;;;;;;;5031063;28;20057;-73
2022/08/16 12:19:52;;;;;;;16.08;14.65;;;;;;;;;;5030201;28;20572;-74
2022/08/16 12:22:19;;;;;;;18.33;16.50;;;;;;;;;;5031074;28;20049;-73
2022/08/16 12:24:46;;;;;;;17.55;16.10;;;;;;;;;;5030564;28;20050;-73
2022/08/16 12:27:18;;;;;;;14.68;13.57;;;;;;;;;;5030859;28;20045;-73
2022/08/16 12:29:50;;;;;;;15.98;14.65;;;;;;;;;;5030911;28;20102;-74
2022/08/16 12:32:16;;;;;;;13.85;12.65;;;;;;;;;;5030909;28;20057;-74
2022/08/16 12:35:06;;;;;;;14.48;13.13;;;;;;;;;;5030793;28;20075;-74
2022/08/16 12:37:32;;;;;;;15.93;14.73;;;;;;;;;;5030619;28;20051;-74
2022/08/16 12:40:00;;;;;;;16.17;14.75;;;;;;;;;;5031330;28;20057;-74
2022/08/16 12:42:28;;;;;;;15.40;14.05;;;;;;;;;;5033692;28;20498;-75
2022/08/16 12:45:04;;;;;;;13.23;11.85;;;;;;;;;;5034024;28;20041;-73
2022/08/16 12:50:20;;;;;;;12.57;11.48;;;;;;;;;;5031120;28;20119;-74
2022/08/16 12:52:59;;;;;;;11.35;10.35;;;;;;;;;;5033246;28;20156;-76
2022/08/16 12:55:29;;;;;;;10.38;9.48;;;;;;;;;;5033988;28;20049;-74
2022/08/16 12:58:07;;;;;;;8.93;8.20;;;;;;;;;;5033644;28;20099;-76
2022/08/16 13:00:53;;;;;;;7.50;6.82;;;;;;;;;;5033375;28;20053;-74
2022/08/16 13:03:20;;;;;;;7.50;6.85;;;;;;;;;;5032870;28;20049;-75
2022/08/16 13:05:49;;;;;;;7.22;6.72;;;;;;;;;;5032873;28;20053;-75
2022/08/16 13:08:21;;;;;;;6.88;6.35;;;;;;;;;;5033788;28;20136;-75
2022/08/16 13:10:53;;;;;;;6.00;5.55;;;;;;;;;;5032572;28;20497;-75
2022/08/16 13:13:26;;;;;;;7.32;6.50;;;;;;;;;;5033619;28;20513;-74
2022/08/16 13:15:59;;;;;;;7.90;7.20;;;;;;;;;;5033458;28;20100;-75
2022/08/16 13:18:30;;;;;;;7.95;7.15;;;;;;;;;;5032006;28;20115;-74
2022/08/16 13:21:04;;;;;;;7.75;7.15;;;;;;;;;;5033504;28;20617;-74
2022/08/16 13:23:31;;;;;;;13.85;7.82;;;;;;;;;;5033171;28;20049;-75
2022/08/16 13:25:58;;;;;;;7.63;6.97;;;;;;;;;;5033568;28;20413;-74
2022/08/16 13:28:25;;;;;;;6.72;6.13;;;;;;;;;;5033178;28;20552;-74
2022/08/16 13:30:52;;;;;;;6.60;5.90;;;;;;;;;;5033656;28;20049;-76
2022/08/16 13:33:22;;;;;;;6.35;5.93;;;;;;;;;;5033293;28;20049;-75
2022/08/16 13:35:52;;;;;;;7.35;6.80;;;;;;;;;;5033727;28;20441;-75
2022/08/16 13:38:23;;;;;;;7.35;6.65;;;;;;;;;;5032028;28;20056;-74
2022/08/16 13:40:54;;;;;;;7.13;6.43;;;;;;;;;;5033556;28;20053;-74
2022/08/16 13:43:23;;;;;;;7.78;7.20;;;;;;;;;;5033484;28;20053;-73
2022/08/16 13:45:51;;;;;;;9.02;8.32;;;;;;;;;;5033474;28;20053;-74
2022/08/16 13:48:20;;;;;;;8.75;7.97;;;;;;;;;;5032991;28;20048;-74
2022/08/16 13:50:52;;;;;;;7.50;6.90;;;;;;;;;;5025015;28;20046;-73
2022/08/16 13:53:20;;;;;;;5.95;5.10;;;;;;;;;;5030643;28;20141;-73
2022/08/16 13:55:50;;;;;;;5.35;4.85;;;;;;;;;;5032745;28;20076;-74
2022/08/16 13:58:24;;;;;;;6.20;5.70;;;;;;;;;;5032271;28;20104;-73
2022/08/16 14:01:11;;;;;;;7.95;7.35;;;;;;;;;;5032922;28;20050;-74
2022/08/16 14:03:38;;;;;;;6.75;6.25;;;;;;;;;;5032452;28;20115;-73
2022/08/16 14:06:06;;;;;;;5.70;5.20;;;;;;;;;;5032961;28;20045;-73
2022/08/16 14:08:36;;;;;;;5.40;5.00;;;;;;;;;;5029898;28;20482;-72
2022/08/16 14:11:09;;;;;;;6.15;5.43;;;;;;;;;;5020243;28;20054;-76
2022/08/16 14:13:39;;;;;;;5.80;5.30;;;;;;;;;;5032807;28;20057;-74
2022/08/16 14:16:06;;;;;;;5.32;4.93;;;;;;;;;;5033076;28;20053;-71
2022/08/16 14:18:49;;;;;;;5.05;4.65;;;;;;;;;;5033127;28;20094;-74
2022/08/16 14:21:18;;;;;;;5.18;4.82;;;;;;;;;;5032645;28;20076;-71
2022/08/16 14:23:47;;;;;;;6.25;5.68;;;;;;;;;;5031765;28;20050;-71
2022/08/16 14:26:13;;;;;;;8.18;7.57;;;;;;;;;;5032415;28;20046;-69
2022/08/16 14:28:40;;;;;;;8.93;7.28;;;;;;;;;;5032489;28;20091;-71
2022/08/16 14:31:08;;;;;;;;;;;;;;;;;;5032551;28;20067;-72
2022/08/16 14:33:34;;;;;;;10.93;9.93;;;;;;;;;;5032506;28;19921;-73
2022/08/16 14:36:01;;;;;;;10.48;9.63;;;;;;;;;;5032462;28;20081;-72
2022/08/16 14:38:28;;;;;;;11.07;10.07;;;;;;;;;;5032367;28;20061;-73
2022/08/16 14:41:02;;;;;;;11.85;10.88;;;;;;;;;;5032739;28;20103;-73
2022/08/16 14:43:32;;;;;;;11.15;10.23;;;;;;;;;;5032221;28;20060;-73
2022/08/16 14:45:59;;;;;;;12.27;11.30;;;;;;;;;;5030043;28;20046;-73
2022/08/16 14:48:27;;;;;;;;;;;;;;;;;;5032093;28;20048;-73
2022/08/16 14:50:53;;;;;;;12.57;11.38;;;;;;;;;;5029950;28;19921;-73
2022/08/16 14:53:21;;;;;;;12.43;11.50;;;;;;;;;;5032186;28;20057;-73
2022/08/16 14:55:48;;;;;;;;;;;;;;;;;;5031844;28;20085;-73